Time;durP1;ratioP1;P1;durP2;ratioP2;P2;SDS_P1;SDS_P2;PMS_P1;PMS_P2;Temp;Humidity;BMP_temperature;BMP_pressure;BME280_temperature;BME280_humidity;BME280_pressure;Samples;Min_cycle;Max_cycle;Signal;HPM_P1;HPM_P2
2021/12/27 00:02:22;;;;;;;6.25;2.45;;;4.40;99.90;;;;;;5067385;28;20396;-67
2021/12/27 00:04:47;;;;;;;4.55;1.90;;;4.50;99.90;;;;;;5075474;28;20097;-67
2021/12/27 00:07:14;;;;;;;2.58;1.63;;;4.60;99.90;;;;;;5070983;28;20033;-67
2021/12/27 00:09:40;;;;;;;1.85;1.10;;;4.60;99.90;;;;;;5069567;28;20024;-67
2021/12/27 00:12:07;;;;;;;4.55;2.47;;;4.60;99.90;;;;;;5070229;28;20376;-67
2021/12/27 00:14:33;;;;;;;3.08;1.67;;;4.70;99.90;;;;;;5072582;28;20039;-67
2021/12/27 00:16:58;;;;;;;4.25;1.92;;;4.70;99.90;;;;;;5072243;28;20016;-67
2021/12/27 00:19:24;;;;;;;3.90;1.45;;;4.60;99.90;;;;;;5070642;28;20024;-67
2021/12/27 00:21:50;;;;;;;4.43;1.73;;;4.60;99.90;;;;;;5068670;28;20027;-67
2021/12/27 00:24:15;;;;;;;1.35;1.13;;;4.50;99.90;;;;;;5070183;28;20273;-67
2021/12/27 00:26:41;;;;;;;3.60;1.27;;;4.60;99.90;;;;;;5067954;28;20489;-68
2021/12/27 00:29:07;;;;;;;5.18;2.08;;;4.70;99.90;;;;;;5070720;28;20027;-67
2021/12/27 00:31:32;;;;;;;3.58;1.52;;;4.60;99.90;;;;;;5072188;28;20395;-66
2021/12/27 00:33:58;;;;;;;4.82;2.45;;;4.60;99.90;;;;;;5070203;28;20108;-66
2021/12/27 00:36:24;;;;;;;4.50;1.73;;;4.60;99.90;;;;;;5075810;28;20052;-68
2021/12/27 00:38:49;;;;;;;2.95;1.50;;;4.60;99.90;;;;;;5077690;28;20024;-67
2021/12/27 00:41:15;;;;;;;2.90;1.27;;;4.50;99.90;;;;;;5073186;28;20488;-67
2021/12/27 00:43:41;;;;;;;8.23;2.10;;;4.50;99.90;;;;;;5066842;28;20028;-67
2021/12/27 00:46:06;;;;;;;4.28;1.98;;;4.60;99.90;;;;;;5073937;28;20038;-67
2021/12/27 00:48:32;;;;;;;2.90;1.67;;;4.50;99.90;;;;;;5075906;28;20484;-67
2021/12/27 00:50:58;;;;;;;1.25;0.90;;;4.60;99.90;;;;;;5072413;28;20099;-67
2021/12/27 00:53:24;;;;;;;3.35;1.73;;;4.40;99.90;;;;;;5066248;28;20020;-67
2021/12/27 00:55:49;;;;;;;2.65;1.30;;;4.40;99.90;;;;;;5066332;28;20036;-67
2021/12/27 00:58:15;;;;;;;3.00;1.55;;;4.40;99.90;;;;;;5073061;28;20016;-67
2021/12/27 01:00:41;;;;;;;10.15;2.22;;;4.40;99.90;;;;;;5075335;28;20043;-67
2021/12/27 01:03:07;;;;;;;4.20;1.48;;;4.50;99.90;;;;;;5073816;28;20029;-67
2021/12/27 01:05:33;;;;;;;4.68;1.90;;;4.60;99.90;;;;;;5074615;28;20039;-67
2021/12/27 01:07:59;;;;;;;4.10;1.92;;;4.60;99.90;;;;;;5074147;28;20025;-67
2021/12/27 01:13:05;;;;;;;3.88;1.85;;;4.70;99.90;;;;;;5067834;28;20484;-67
2021/12/27 01:15:48;;;;;;;3.78;1.35;;;4.70;99.90;;;;;;5072844;28;20473;-67
2021/12/27 01:18:18;;;;;;;1.92;1.15;;;4.60;99.90;;;;;;5070945;28;20518;-67
2021/12/27 01:20:44;;;;;;;7.82;2.75;;;4.70;99.90;;;;;;5073887;28;20044;-67
2021/12/27 01:23:10;;;;;;;4.43;1.88;;;4.70;99.90;;;;;;5071745;28;20028;-67
2021/12/27 01:25:36;;;;;;;2.13;1.05;;;4.60;99.90;;;;;;5072756;28;20036;-67
2021/12/27 01:28:03;;;;;;;4.00;1.67;;;4.60;99.90;;;;;;5076440;28;20365;-67
2021/12/27 01:30:30;;;;;;;3.65;1.75;;;4.60;99.90;;;;;;5074921;28;20093;-67
2021/12/27 01:32:59;;;;;;;4.78;1.80;;;4.60;99.90;;;;;;5077234;28;20553;-67
2021/12/27 01:35:25;;;;;;;2.28;1.42;;;4.60;99.90;;;;;;5072421;28;20107;-67
2021/12/27 01:37:53;;;;;;;1.58;1.00;;;4.50;99.90;;;;;;5071969;28;20028;-67
2021/12/27 01:40:22;;;;;;;3.33;1.30;;;4.60;99.90;;;;;;5071403;28;20048;-67
2021/12/27 01:43:12;;;;;;;6.90;2.13;;;4.60;99.90;;;;;;5068623;28;20043;-67
2021/12/27 01:45:53;;;;;;;2.45;1.42;;;4.60;99.90;;;;;;5068897;28;20373;-67
2021/12/27 01:48:23;;;;;;;5.15;1.95;;;4.60;99.90;;;;;;5070123;28;20070;-67
2021/12/27 01:50:51;;;;;;;4.40;1.42;;;4.70;99.90;;;;;;5069740;28;20027;-67
2021/12/27 01:53:18;;;;;;;3.50;1.27;;;4.80;99.90;;;;;;5071609;28;20033;-66
2021/12/27 01:55:44;;;;;;;4.97;1.70;;;4.80;99.90;;;;;;5078576;28;20418;-66
2021/12/27 01:58:11;;;;;;;5.43;2.08;;;4.80;99.90;;;;;;5075991;28;20039;-66
2021/12/27 02:00:40;;;;;;;3.42;1.73;;;4.80;99.90;;;;;;5079120;28;20523;-66
2021/12/27 02:03:05;;;;;;;1.20;1.00;;;4.80;99.90;;;;;;5073852;28;20034;-66
2021/12/27 02:05:33;;;;;;;4.70;1.50;;;4.80;99.90;;;;;;5077738;28;20028;-66
2021/12/27 02:08:00;;;;;;;2.38;1.27;;;;;;;;;;5077031;28;20082;-66
2021/12/27 02:10:25;;;;;;;3.60;1.80;;;4.80;99.90;;;;;;5068264;28;20123;-66
2021/12/27 02:12:51;;;;;;;6.18;2.55;;;4.80;99.90;;;;;;5077256;28;20138;-66
2021/12/27 02:15:17;;;;;;;1.88;1.23;;;4.70;99.90;;;;;;5079701;28;20028;-66
2021/12/27 02:17:44;;;;;;;1.90;1.20;;;4.80;99.90;;;;;;5073955;28;20397;-66
2021/12/27 02:20:17;;;;;;;2.67;1.17;;;4.70;99.90;;;;;;5072333;28;20067;-66
2021/12/27 02:22:44;;;;;;;3.22;1.38;;;4.80;99.90;;;;;;5074842;28;20491;-66
2021/12/27 02:25:11;;;;;;;4.38;1.80;;;4.70;99.90;;;;;;5072993;28;20032;-66
2021/12/27 02:27:37;;;;;;;3.15;1.40;;;4.70;99.90;;;;;;5074971;28;20034;-66
2021/12/27 02:30:08;;;;;;;4.50;1.95;;;4.70;99.90;;;;;;5073190;28;20028;-66
2021/12/27 02:32:55;;;;;;;1.80;1.10;;;4.70;99.90;;;;;;5074174;28;20561;-66
2021/12/27 02:35:22;;;;;;;3.35;1.33;;;4.70;99.90;;;;;;5075932;28;20024;-66
2021/12/27 02:37:48;;;;;;;5.18;2.60;;;4.70;99.90;;;;;;5075159;28;20031;-66
2021/12/27 02:40:14;;;;;;;2.95;1.40;;;4.70;99.90;;;;;;5073253;28;20028;-66
2021/12/27 02:42:55;;;;;;;2.22;1.20;;;4.70;99.90;;;;;;5070303;28;20028;-66
2021/12/27 02:45:20;;;;;;;1.98;1.00;;;4.70;99.90;;;;;;5068960;28;20037;-66
2021/12/27 02:47:46;;;;;;;3.58;1.58;;;4.70;99.90;;;;;;5075840;28;20031;-66
2021/12/27 02:50:12;;;;;;;5.55;1.73;;;4.70;99.90;;;;;;5071480;28;20035;-66
2021/12/27 02:52:38;;;;;;;2.75;1.48;;;4.60;99.90;;;;;;5078024;28;20027;-66
2021/12/27 02:55:04;;;;;;;5.35;1.73;;;4.70;99.90;;;;;;5075360;28;20031;-66
2021/12/27 02:57:30;;;;;;;2.38;1.35;;;4.60;99.90;;;;;;5076183;28;20036;-66
2021/12/27 02:59:57;;;;;;;4.03;1.73;;;4.60;99.90;;;;;;5076207;28;20032;-66
2021/12/27 03:02:23;;;;;;;2.58;1.08;;;4.70;99.90;;;;;;5073880;28;20481;-66
2021/12/27 03:04:49;;;;;;;2.15;1.17;;;4.60;99.90;;;;;;5075897;28;20024;-66
2021/12/27 03:07:15;;;;;;;2.25;1.48;;;4.60;99.90;;;;;;5069026;28;20089;-66
2021/12/27 03:09:40;;;;;;;2.00;1.20;;;4.60;99.90;;;;;;5079926;28;20028;-66
2021/12/27 03:12:12;;;;;;;1.08;0.98;;;4.70;99.90;;;;;;5072119;28;20059;-66
2021/12/27 03:14:38;;;;;;;2.10;1.38;;;4.70;99.90;;;;;;5076275;28;20125;-66
2021/12/27 03:17:05;;;;;;;3.05;1.73;;;4.60;99.90;;;;;;5068993;28;20760;-66
2021/12/27 03:19:31;;;;;;;3.30;1.52;;;4.60;99.90;;;;;;5073466;28;20107;-66
2021/12/27 03:21:56;;;;;;;6.47;1.98;;;4.60;99.90;;;;;;5076748;28;20168;-66
2021/12/27 03:24:22;;;;;;;6.25;2.20;;;4.70;99.90;;;;;;5073705;28;20468;-66
2021/12/27 03:26:49;;;;;;;4.10;1.70;;;4.60;99.90;;;;;;5073370;28;20104;-66
2021/12/27 03:29:15;;;;;;;2.90;1.67;;;4.60;99.90;;;;;;5069071;28;20388;-66
2021/12/27 03:31:41;;;;;;;5.05;1.65;;;4.60;99.90;;;;;;5072097;28;20033;-66
2021/12/27 03:34:07;;;;;;;6.78;2.10;;;4.60;99.90;;;;;;5075631;28;20012;-66
2021/12/27 03:36:40;;;;;;;2.70;1.45;;;4.50;99.90;;;;;;5072621;28;20026;-66
2021/12/27 03:39:08;;;;;;;3.63;1.90;;;4.60;99.90;;;;;;5077572;28;20384;-66
2021/12/27 03:41:34;;;;;;;5.47;2.28;;;4.60;99.90;;;;;;5070643;28;20452;-66
2021/12/27 03:44:00;;;;;;;4.40;1.70;;;4.60;99.90;;;;;;5072896;28;20035;-66
2021/12/27 03:46:26;;;;;;;3.17;1.83;;;4.60;99.90;;;;;;5067290;28;20567;-66
2021/12/27 03:48:51;;;;;;;8.10;2.30;;;4.50;99.90;;;;;;5075033;28;20024;-66
2021/12/27 03:51:17;;;;;;;2.90;1.40;;;4.50;99.90;;;;;;5079210;28;20020;-66
2021/12/27 03:53:43;;;;;;;1.80;1.35;;;4.60;99.90;;;;;;5074372;28;20327;-66
2021/12/27 03:56:09;;;;;;;2.42;1.55;;;4.60;99.90;;;;;;5071375;28;20020;-66
2021/12/27 03:58:56;;;;;;;2.35;1.40;;;4.50;99.90;;;;;;5078933;28;20028;-66
2021/12/27 04:01:23;;;;;;;3.92;1.77;;;4.60;99.90;;;;;;5071884;28;20044;-66
2021/12/27 04:03:53;;;;;;;3.72;2.03;;;4.60;99.90;;;;;;5072277;28;20020;-66
2021/12/27 04:06:21;;;;;;;2.83;1.35;;;4.60;99.90;;;;;;5070445;28;20024;-66
2021/12/27 04:08:47;;;;;;;3.85;1.70;;;4.60;99.90;;;;;;5069821;28;20086;-66
2021/12/27 04:11:13;;;;;;;6.15;1.83;;;4.60;99.90;;;;;;5074343;28;20021;-66
2021/12/27 04:13:39;;;;;;;3.92;1.98;;;4.50;99.90;;;;;;5070105;28;20028;-66
2021/12/27 04:16:05;;;;;;;2.60;1.20;;;4.60;99.90;;;;;;5072710;28;20021;-66
2021/12/27 04:18:30;;;;;;;2.38;1.30;;;4.50;99.90;;;;;;5075779;28;20028;-66
2021/12/27 04:20:56;;;;;;;5.70;2.03;;;4.60;99.90;;;;;;5069324;28;20134;-66
2021/12/27 04:23:21;;;;;;;3.00;1.13;;;4.50;99.90;;;;;;5071353;28;20502;-66
2021/12/27 04:25:48;;;;;;;2.63;1.58;;;4.50;99.90;;;;;;5077581;28;20023;-66
2021/12/27 04:28:15;;;;;;;4.43;1.83;;;4.60;99.90;;;;;;5070434;28;20418;-66
2021/12/27 04:30:40;;;;;;;6.70;2.25;;;4.60;99.90;;;;;;5076703;28;20109;-66
2021/12/27 04:33:06;;;;;;;4.03;1.98;;;4.60;99.90;;;;;;5070179;28;20516;-66
2021/12/27 04:35:32;;;;;;;5.20;2.20;;;4.70;99.90;;;;;;5071129;28;20140;-66
2021/12/27 04:37:58;;;;;;;5.85;2.63;;;4.70;99.90;;;;;;5078537;28;20039;-66
2021/12/27 04:40:25;;;;;;;5.70;2.53;;;4.70;99.90;;;;;;5075046;28;20028;-66
2021/12/27 04:42:58;;;;;;;1.90;1.02;;;4.70;99.90;;;;;;5069080;28;20944;-66
2021/12/27 04:45:24;;;;;;;3.47;1.40;;;4.80;99.90;;;;;;5070353;28;20028;-66
2021/12/27 04:47:50;;;;;;;4.85;2.13;;;4.70;99.90;;;;;;5070240;28;20077;-66
2021/12/27 04:50:15;;;;;;;2.38;1.33;;;4.80;99.90;;;;;;5070505;28;20579;-66
2021/12/27 04:52:42;;;;;;;1.42;1.13;;;4.80;99.90;;;;;;5072690;28;20016;-66
2021/12/27 04:55:08;;;;;;;3.70;1.08;;;4.80;99.90;;;;;;5073548;28;20031;-66
2021/12/27 04:57:35;;;;;;;3.28;1.65;;;4.80;99.90;;;;;;5077852;28;20460;-66
2021/12/27 05:00:01;;;;;;;4.13;1.75;;;4.80;99.90;;;;;;5080342;28;20047;-66
2021/12/27 05:02:27;;;;;;;5.57;2.28;;;4.90;99.90;;;;;;5075597;28;20099;-66
2021/12/27 05:04:52;;;;;;;2.13;1.23;;;4.80;99.90;;;;;;5075305;28;20511;-67
2021/12/27 05:07:18;;;;;;;1.40;1.17;;;4.90;99.90;;;;;;5076241;28;20028;-67
2021/12/27 05:09:43;;;;;;;3.42;1.38;;;4.90;99.90;;;;;;5076123;28;20021;-67
2021/12/27 05:12:09;;;;;;;5.55;1.90;;;4.90;99.90;;;;;;5075052;28;20040;-67
2021/12/27 05:14:35;;;;;;;5.38;1.88;;;4.90;99.90;;;;;;5080286;28;20425;-67
2021/12/27 05:17:01;;;;;;;2.33;1.20;;;4.90;99.90;;;;;;5076770;28;20090;-67
2021/12/27 05:19:26;;;;;;;1.83;1.23;;;5.00;99.90;;;;;;5071083;28;20036;-67
2021/12/27 05:21:52;;;;;;;3.78;1.33;;;4.90;99.90;;;;;;5078969;28;20043;-67
2021/12/27 05:24:19;;;;;;;2.60;1.65;;;4.90;99.90;;;;;;5073597;28;20439;-67
2021/12/27 05:26:44;;;;;;;7.75;1.70;;;4.90;99.90;;;;;;5078012;28;20122;-67
2021/12/27 05:29:10;;;;;;;4.32;1.23;;;4.90;99.90;;;;;;5082084;28;20475;-67
2021/12/27 05:31:37;;;;;;;1.90;1.25;;;4.90;99.90;;;;;;5077131;28;20425;-67
2021/12/27 05:34:03;;;;;;;5.03;1.83;;;4.80;99.90;;;;;;5071157;28;20021;-67
2021/12/27 05:36:28;;;;;;;5.78;2.42;;;4.90;99.90;;;;;;5079119;28;20040;-67
2021/12/27 05:38:54;;;;;;;2.90;1.40;;;4.90;99.90;;;;;;5073761;28;20075;-67
2021/12/27 05:41:20;;;;;;;1.70;1.13;;;4.80;99.90;;;;;;5079427;28;20151;-67
2021/12/27 05:43:45;;;;;;;2.00;1.15;;;4.90;99.90;;;;;;5082167;28;20107;-67
2021/12/27 05:46:11;;;;;;;3.25;0.95;;;4.90;99.90;;;;;;5074739;28;20028;-67
2021/12/27 05:48:37;;;;;;;3.58;1.58;;;4.90;99.90;;;;;;5073913;28;20484;-67
2021/12/27 05:51:03;;;;;;;2.53;1.55;;;5.00;99.90;;;;;;5075699;28;20016;-67
2021/12/27 05:53:28;;;;;;;2.70;1.45;;;5.00;99.90;;;;;;5080510;28;20112;-67
2021/12/27 05:55:54;;;;;;;2.65;1.17;;;5.10;99.90;;;;;;5074686;28;20023;-67
2021/12/27 05:58:20;;;;;;;4.20;1.58;;;5.00;99.90;;;;;;5076159;28;20032;-67
2021/12/27 06:00:45;;;;;;;2.45;1.35;;;5.10;99.90;;;;;;5079362;28;20078;-67
2021/12/27 06:03:11;;;;;;;3.65;1.60;;;5.00;99.90;;;;;;5077407;28;20024;-67
2021/12/27 06:05:36;;;;;;;4.30;2.20;;;5.00;99.90;;;;;;5074372;28;20036;-67
2021/12/27 06:08:02;;;;;;;5.68;1.85;;;5.00;99.90;;;;;;5080237;28;20052;-67
2021/12/27 06:10:28;;;;;;;3.17;1.83;;;5.00;99.90;;;;;;5071592;28;20040;-67
2021/12/27 06:12:54;;;;;;;7.95;1.58;;;5.00;99.90;;;;;;5075670;28;20043;-66
2021/12/27 06:15:20;;;;;;;3.85;1.77;;;5.00;99.90;;;;;;5074111;28;20484;-67
2021/12/27 06:17:45;;;;;;;1.92;1.25;;;5.00;99.90;;;;;;5074995;28;20472;-67
2021/12/27 06:20:14;;;;;;;1.75;1.35;;;5.00;99.90;;;;;;5080414;28;20048;-66
2021/12/27 06:22:45;;;;;;;1.95;1.50;;;5.10;99.90;;;;;;5079111;28;20028;-67
2021/12/27 06:25:11;;;;;;;3.35;1.85;;;5.20;99.90;;;;;;5078827;28;20028;-66
2021/12/27 06:27:37;;;;;;;3.17;1.58;;;5.20;99.90;;;;;;5079040;28;20047;-68
2021/12/27 06:30:07;;;;;;;3.33;1.65;;;5.30;99.90;;;;;;5087238;28;20020;-66
2021/12/27 06:32:33;;;;;;;7.35;3.85;;;5.30;99.90;;;;;;5081194;28;20357;-66
2021/12/27 06:34:59;;;;;;;2.45;1.35;;;5.40;99.90;;;;;;5073825;28;20081;-66
2021/12/27 06:37:25;;;;;;;5.72;1.73;;;5.40;99.90;;;;;;5075326;28;20155;-67
2021/12/27 06:39:50;;;;;;;6.13;2.13;;;5.40;99.90;;;;;;5080439;28;20100;-66
2021/12/27 06:42:16;;;;;;;7.70;2.40;;;5.40;99.90;;;;;;5081829;28;20017;-67
2021/12/27 06:44:42;;;;;;;5.68;1.95;;;5.40;99.90;;;;;;5075698;28;20020;-67
2021/12/27 06:47:07;;;;;;;3.10;1.67;;;5.40;99.90;;;;;;5079191;28;20052;-67
2021/12/27 06:49:33;;;;;;;3.17;1.58;;;5.40;99.90;;;;;;5079540;28;20025;-68
2021/12/27 06:51:59;;;;;;;4.85;1.90;;;5.40;99.90;;;;;;5082040;28;20039;-68
2021/12/27 06:54:25;;;;;;;2.65;1.60;;;5.40;99.90;;;;;;5076712;28;20016;-68
2021/12/27 06:56:51;;;;;;;4.13;1.80;;;5.40;99.90;;;;;;5079149;28;20027;-67
2021/12/27 06:59:17;;;;;;;4.43;2.05;;;5.50;99.90;;;;;;5081784;28;20451;-68
2021/12/27 07:01:43;;;;;;;3.42;1.70;;;5.50;99.90;;;;;;5077393;28;20016;-67
2021/12/27 07:04:09;;;;;;;3.72;1.80;;;5.50;99.90;;;;;;5084795;28;20020;-67
2021/12/27 07:06:34;;;;;;;3.13;1.52;;;5.60;99.90;;;;;;5077819;28;20078;-67
2021/12/27 07:09:00;;;;;;;5.00;1.80;;;5.60;99.90;;;;;;5081993;28;20089;-67
2021/12/27 07:11:25;;;;;;;3.40;1.25;;;5.60;99.90;;;;;;5087424;28;20028;-67
2021/12/27 07:13:51;;;;;;;1.25;1.05;;;5.60;99.90;;;;;;5074734;28;21053;-67
2021/12/27 07:16:17;;;;;;;5.60;1.58;;;5.60;99.90;;;;;;5081073;28;20024;-68
2021/12/27 07:18:42;;;;;;;5.90;2.15;;;5.70;99.90;;;;;;5084234;28;20024;-68
2021/12/27 07:21:08;;;;;;;2.58;1.70;;;5.60;99.90;;;;;;5086148;28;20488;-68
2021/12/27 07:23:33;;;;;;;5.22;1.88;;;5.60;99.90;;;;;;5078575;28;20039;-68
2021/12/27 07:25:59;;;;;;;3.13;1.83;;;5.70;99.90;;;;;;5083903;28;20495;-67
2021/12/27 07:28:25;;;;;;;3.17;1.38;;;5.70;99.90;;;;;;5080067;28;20032;-68
2021/12/27 07:30:50;;;;;;;8.85;1.90;;;5.70;99.90;;;;;;5085212;28;20024;-69
2021/12/27 07:33:16;;;;;;;3.17;1.77;;;5.70;99.90;;;;;;5079899;28;20021;-68
2021/12/27 07:35:42;;;;;;;2.05;1.58;;;5.80;99.90;;;;;;5080388;28;20036;-68
2021/12/27 07:38:08;;;;;;;8.98;2.63;;;5.70;99.90;;;;;;5083743;28;20050;-68
2021/12/27 07:40:34;;;;;;;5.15;2.00;;;5.80;99.90;;;;;;5078815;28;20025;-68
2021/12/27 07:43:00;;;;;;;5.03;2.08;;;5.70;99.90;;;;;;5084280;28;20035;-68
2021/12/27 07:45:26;;;;;;;6.70;1.88;;;5.70;99.90;;;;;;5083843;28;20542;-69
2021/12/27 07:47:52;;;;;;;5.93;2.65;;;5.70;99.90;;;;;;5077431;28;20107;-68
2021/12/27 07:50:19;;;;;;;3.85;1.85;;;5.70;99.90;;;;;;5074182;28;20095;-68
2021/12/27 07:52:45;;;;;;;5.75;2.25;;;5.80;99.90;;;;;;5077924;28;20398;-68
2021/12/27 07:55:10;;;;;;;6.38;2.40;;;5.80;99.90;;;;;;5076800;28;20020;-68
2021/12/27 07:57:36;;;;;;;5.15;2.28;;;5.70;99.90;;;;;;5074974;28;20024;-69
2021/12/27 08:00:05;;;;;;;6.03;1.85;;;5.80;99.90;;;;;;5068265;28;20027;-66
2021/12/27 08:02:31;;;;;;;3.45;1.60;;;5.80;99.90;;;;;;5074835;28;20024;-66
2021/12/27 08:04:56;;;;;;;5.22;1.98;;;5.80;99.90;;;;;;5078327;28;20026;-66
2021/12/27 08:07:22;;;;;;;5.70;1.88;;;5.90;99.90;;;;;;5075446;28;20008;-66
2021/12/27 08:09:48;;;;;;;2.95;1.55;;;5.80;99.90;;;;;;5073243;28;20392;-66
2021/12/27 08:12:14;;;;;;;7.43;2.58;;;5.90;99.90;;;;;;5075564;28;20017;-66
2021/12/27 08:14:40;;;;;;;6.68;2.42;;;5.90;99.90;;;;;;5069372;28;20036;-66
2021/12/27 08:17:06;;;;;;;5.55;1.63;;;6.00;99.90;;;;;;5073662;28;20036;-66
2021/12/27 08:19:33;;;;;;;3.92;2.08;;;6.00;99.90;;;;;;5074871;28;20078;-66
2021/12/27 08:21:59;;;;;;;4.93;2.45;;;6.00;99.90;;;;;;5074516;28;20027;-67
2021/12/27 08:24:25;;;;;;;3.20;1.60;;;6.10;99.90;;;;;;5075566;28;20073;-69
2021/12/27 08:26:51;;;;;;;3.10;1.55;;;6.10;99.90;;;;;;5075998;28;20028;-70
2021/12/27 08:29:16;;;;;;;2.90;1.48;;;6.20;99.90;;;;;;5072918;28;20028;-70
2021/12/27 08:31:42;;;;;;;2.25;1.20;;;6.20;99.90;;;;;;5072095;28;20426;-68
2021/12/27 08:34:08;;;;;;;3.60;1.40;;;6.20;99.90;;;;;;5074583;28;20039;-69
2021/12/27 08:36:34;;;;;;;5.25;2.20;;;6.20;99.90;;;;;;5073359;28;20021;-68
2021/12/27 08:39:00;;;;;;;7.35;1.92;;;6.20;99.90;;;;;;5074456;28;20548;-68
2021/12/27 08:41:28;;;;;;;3.42;1.70;;;6.20;99.90;;;;;;5080661;28;20028;-68
2021/12/27 08:44:05;;;;;;;2.88;1.52;;;6.30;99.90;;;;;;5076655;28;20548;-69
2021/12/27 08:46:32;;;;;;;3.80;1.30;;;6.30;99.90;;;;;;5070996;28;20021;-69
2021/12/27 08:48:57;;;;;;;6.65;1.60;;;6.30;99.90;;;;;;5086579;28;20025;-69
2021/12/27 08:51:23;;;;;;;4.28;1.75;;;6.40;99.90;;;;;;5072320;28;20029;-69
2021/12/27 08:53:49;;;;;;;4.65;1.52;;;6.40;99.90;;;;;;5069192;28;20091;-68
2021/12/27 08:56:16;;;;;;;5.10;2.28;;;6.50;99.90;;;;;;5072801;28;20132;-68
2021/12/27 08:58:42;;;;;;;2.70;1.50;;;6.70;99.90;;;;;;5071260;28;20028;-68
2021/12/27 09:01:08;;;;;;;5.43;2.28;;;6.70;99.90;;;;;;5071457;28;20051;-69
2021/12/27 09:03:34;;;;;;;7.30;2.17;;;7.20;99.90;;;;;;5074157;28;20593;-69
2021/12/27 09:06:00;;;;;;;2.95;1.27;;;8.00;99.90;;;;;;5067862;28;20437;-69
2021/12/27 09:08:25;;;;;;;3.95;1.40;;;8.10;99.90;;;;;;5071699;28;20036;-67
2021/12/27 09:10:51;;;;;;;2.30;1.13;;;8.00;99.90;;;;;;5068492;28;20158;-66
2021/12/27 09:13:17;;;;;;;2.20;1.00;;;7.90;99.90;;;;;;5071795;28;20473;-68
2021/12/27 09:15:43;;;;;;;3.20;1.63;;;7.90;99.90;;;;;;5071343;28;20020;-68
2021/12/27 09:18:08;;;;;;;3.35;1.58;;;7.40;99.90;;;;;;5075883;28;20082;-69
2021/12/27 09:20:34;;;;;;;4.22;2.42;;;6.90;99.90;;;;;;5072503;28;20083;-66
2021/12/27 09:23:00;;;;;;;1.33;1.00;;;6.60;99.90;;;;;;5073678;28;20183;-67
2021/12/27 09:25:25;;;;;;;30.02;1.88;;;6.60;99.90;;;;;;5070392;28;20502;-66
2021/12/27 09:27:51;;;;;;;4.00;1.55;;;6.50;99.90;;;;;;5073921;28;20029;-67
2021/12/27 09:30:17;;;;;;;5.80;1.40;;;6.70;99.90;;;;;;5070113;28;20033;-66
2021/12/27 09:32:44;;;;;;;3.75;1.30;;;7.40;99.90;;;;;;5070497;28;20024;-67
2021/12/27 09:35:10;;;;;;;2.28;1.30;;;7.70;99.90;;;;;;5072976;28;20480;-66
2021/12/27 09:37:35;;;;;;;1.52;0.82;;;7.70;99.90;;;;;;5068544;28;20025;-67
2021/12/27 09:40:01;;;;;;;4.32;1.60;;;7.80;99.90;;;;;;5072569;28;20111;-66
2021/12/27 09:42:27;;;;;;;3.72;1.52;;;7.70;99.90;;;;;;5070484;28;20107;-67
2021/12/27 09:44:56;;;;;;;3.53;1.27;;;8.00;99.90;;;;;;5071635;28;20455;-67
2021/12/27 09:47:23;;;;;;;2.83;1.33;;;8.20;99.90;;;;;;5073661;28;20024;-66
2021/12/27 09:49:50;;;;;;;1.42;0.77;;;8.30;99.90;;;;;;5076769;28;20048;-67
2021/12/27 09:52:16;;;;;;;4.68;1.73;;;8.30;99.90;;;;;;5072368;28;20581;-66
2021/12/27 09:54:46;;;;;;;3.45;0.82;;;8.50;99.90;;;;;;5071051;28;20116;-65
2021/12/27 09:57:11;;;;;;;4.90;1.38;;;8.30;99.90;;;;;;5073193;28;20126;-69
2021/12/27 09:59:37;;;;;;;3.63;1.67;;;8.10;99.90;;;;;;5072088;28;20488;-65
2021/12/27 10:02:03;;;;;;;6.15;1.73;;;8.30;99.90;;;;;;5073143;28;20240;-66
2021/12/27 10:04:29;;;;;;;1.77;1.15;;;8.40;99.90;;;;;;5067879;28;20427;-66
2021/12/27 10:06:55;;;;;;;1.98;1.30;;;7.90;99.90;;;;;;5066562;28;20025;-67
2021/12/27 10:09:21;;;;;;;2.67;1.70;;;7.70;99.90;;;;;;5078965;28;20095;-67
2021/12/27 10:11:47;;;;;;;3.10;1.10;;;7.90;99.90;;;;;;5072911;28;20178;-67
2021/12/27 10:14:13;;;;;;;3.65;1.92;;;8.10;99.90;;;;;;5069576;28;20074;-66
2021/12/27 10:16:51;;;;;;;4.40;1.35;;;7.80;99.90;;;;;;5072886;28;20096;-66
2021/12/27 10:19:19;;;;;;;1.80;1.27;;;7.50;99.90;;;;;;5078026;28;20047;-66
2021/12/27 10:21:47;;;;;;;1.88;1.08;;;7.30;99.90;;;;;;5077103;28;20048;-66
2021/12/27 10:24:14;;;;;;;5.72;1.23;;;7.20;99.90;;;;;;5073478;28;20040;-66
2021/12/27 10:26:42;;;;;;;3.00;1.15;;;7.20;99.90;;;;;;5072765;28;20043;-66
2021/12/27 10:29:09;;;;;;;1.90;1.20;;;7.20;99.90;;;;;;5074683;28;20020;-66
2021/12/27 10:31:58;;;;;;;2.17;1.40;;;7.40;99.90;;;;;;5070345;28;20486;-66
2021/12/27 10:34:30;;;;;;;1.60;1.05;;;7.70;99.90;;;;;;5078971;28;20396;-66
2021/12/27 10:37:16;;;;;;;1.33;1.00;;;7.90;99.90;;;;;;5072989;28;20470;-66
2021/12/27 10:39:44;;;;;;;1.33;1.10;;;8.20;99.90;;;;;;5077970;28;20115;-66
2021/12/27 10:42:31;;;;;;;2.25;1.13;;;8.50;99.90;;;;;;5075909;28;20035;-66
2021/12/27 10:45:04;;;;;;;1.88;0.95;;;8.50;99.90;;;;;;5074345;28;20048;-69
2021/12/27 10:47:36;;;;;;;4.70;1.60;;;9.50;99.90;;;;;;5077898;28;20037;-66
2021/12/27 10:50:09;;;;;;;2.92;1.17;;;10.90;99.90;;;;;;5077693;28;20060;-67
2021/12/27 10:52:48;;;;;;;4.78;1.70;;;11.00;99.90;;;;;;5076812;28;20486;-66
2021/12/27 10:55:20;;;;;;;3.97;1.67;;;11.00;99.90;;;;;;5073646;28;20074;-66
2021/12/27 10:57:46;;;;;;;6.57;1.67;;;10.00;99.90;;;;;;5077628;28;20024;-69
2021/12/27 11:00:17;;;;;;;4.20;1.42;;;9.60;99.90;;;;;;5081853;28;20507;-67
2021/12/27 11:02:42;;;;;;;4.32;1.30;;;9.30;99.90;;;;;;5079724;28;20102;-67
2021/12/27 11:05:14;;;;;;;4.50;1.35;;;9.30;99.90;;;;;;5075085;28;20028;-67
2021/12/27 11:07:41;;;;;;;3.13;1.25;;;9.10;99.90;;;;;;5068529;28;20048;-67
2021/12/27 11:10:07;;;;;;;3.42;1.60;;;9.30;99.90;;;;;;5075920;28;20048;-67
2021/12/27 11:12:32;;;;;;;4.20;1.88;;;9.00;99.90;;;;;;5073537;28;20032;-67
2021/12/27 11:14:58;;;;;;;3.20;1.23;;;9.40;99.90;;;;;;5067782;28;20027;-67
2021/12/27 11:17:24;;;;;;;2.42;1.35;;;9.40;99.90;;;;;;5070435;28;20028;-67
2021/12/27 11:19:49;;;;;;;3.38;1.33;;;9.50;99.90;;;;;;5073641;28;20044;-67
2021/12/27 11:22:15;;;;;;;5.65;1.48;;;9.50;99.90;;;;;;5072322;28;20039;-67
2021/12/27 11:24:43;;;;;;;5.15;1.75;;;9.60;99.90;;;;;;5071047;28;20477;-67
2021/12/27 11:27:13;;;;;;;4.55;1.88;;;9.40;99.90;;;;;;5066734;28;20021;-68
2021/12/27 11:29:40;;;;;;;5.63;1.63;;;9.10;99.90;;;;;;5068013;28;20388;-69
2021/12/27 11:32:16;;;;;;;4.95;1.63;;;9.20;99.90;;;;;;5077589;28;20097;-69
2021/12/27 11:35:04;;;;;;;6.55;1.90;;;9.20;99.90;;;;;;5070796;28;20024;-68
2021/12/27 11:37:38;;;;;;;8.50;1.50;;;9.60;99.90;;;;;;5072245;28;20107;-69
2021/12/27 11:40:10;;;;;;;3.28;1.63;;;10.10;99.90;;;;;;5076233;28;20024;-69
2021/12/27 11:42:56;;;;;;;3.42;1.40;;;10.20;99.90;;;;;;5068221;28;20034;-68
2021/12/27 11:45:42;;;;;;;2.58;1.10;;;10.10;99.90;;;;;;5068862;28;20021;-68
2021/12/27 11:48:16;;;;;;;3.80;1.52;;;9.60;99.90;;;;;;5072038;28;20090;-68
2021/12/27 11:50:56;;;;;;;2.88;1.38;;;9.40;99.90;;;;;;5073319;28;20021;-69
2021/12/27 11:53:52;;;;;;;4.75;1.60;;;9.40;99.90;;;;;;5072379;28;20482;-68
2021/12/27 11:56:38;;;;;;;3.08;1.05;;;9.50;99.90;;;;;;5067739;28;20040;-68
2021/12/27 11:59:22;;;;;;;6.05;1.38;;;9.50;99.90;;;;;;5075623;28;20051;-67
2021/12/27 12:01:52;;;;;;;1.85;0.95;;;9.60;99.90;;;;;;5070062;28;20438;-67
2021/12/27 12:04:42;;;;;;;2.05;0.88;;;9.50;99.90;;;;;;5071857;28;20045;-68
2021/12/27 12:07:34;;;;;;;2.00;1.05;;;9.50;99.90;;;;;;5073259;28;20040;-67
2021/12/27 12:10:14;;;;;;;2.22;1.02;;;9.50;99.90;;;;;;5069451;28;20032;-67
2021/12/27 12:12:40;;;;;;;1.17;0.80;;;9.80;99.90;;;;;;5068524;28;20081;-67
2021/12/27 12:15:07;;;;;;;2.55;1.30;;;10.20;99.90;;;;;;5072912;28;20150;-68
2021/12/27 12:17:37;;;;;;;2.20;1.00;;;10.00;99.90;;;;;;5069046;28;20504;-67
2021/12/27 12:20:03;;;;;;;2.00;0.90;;;10.30;99.90;;;;;;5065812;28;20052;-67
2021/12/27 12:22:38;;;;;;;1.60;0.82;;;10.90;99.90;;;;;;5071513;28;20033;-68
2021/12/27 12:25:16;;;;;;;3.53;1.38;;;11.10;99.90;;;;;;5069326;28;20516;-67
2021/12/27 12:27:58;;;;;;;2.17;1.00;;;11.00;99.90;;;;;;5069103;28;20058;-68
2021/12/27 12:30:27;;;;;;;2.05;1.02;;;11.10;99.90;;;;;;5084855;28;20174;-68
2021/12/27 12:33:18;;;;;;;1.73;0.97;;;11.00;99.90;;;;;;5070288;28;20021;-67
2021/12/27 12:35:46;;;;;;;4.55;0.80;;;11.10;99.90;;;;;;5061295;28;20611;-67
2021/12/27 12:38:22;;;;;;;2.75;0.95;;;10.60;99.90;;;;;;5074565;28;20024;-67
2021/12/27 12:41:09;;;;;;;1.77;0.90;;;10.50;99.90;;;;;;5074257;28;20020;-67
2021/12/27 12:43:49;;;;;;;2.10;0.95;;;10.60;99.90;;;;;;5081250;28;20496;-67
2021/12/27 12:46:24;;;;;;;1.85;1.08;;;10.60;99.90;;;;;;5069384;28;20028;-67
2021/12/27 12:49:04;;;;;;;1.92;0.95;;;10.60;99.90;;;;;;5069786;28;20028;-67
2021/12/27 12:51:34;;;;;;;2.47;1.13;;;10.50;99.90;;;;;;5067693;28;20047;-67
2021/12/27 12:54:01;;;;;;;1.13;0.80;;;10.50;99.90;;;;;;5070646;28;20033;-67
2021/12/27 12:56:36;;;;;;;4.07;1.05;;;10.30;99.90;;;;;;5069458;28;20473;-67
2021/12/27 12:59:03;;;;;;;1.92;1.05;;;10.60;99.90;;;;;;5071478;28;20031;-68
2021/12/27 13:01:29;;;;;;;1.70;0.93;;;10.70;99.90;;;;;;5068076;28;20322;-66
2021/12/27 13:03:57;;;;;;;2.30;1.10;;;10.70;99.90;;;;;;5069118;28;20032;-68